createdAt,value
2018-11-29T00:02:05.498Z,72.80
2018-11-29T00:06:13.831Z,72.70
2018-11-29T00:10:20.529Z,73.10
2018-11-29T00:14:28.028Z,73.10
2018-11-29T00:18:37.318Z,74.30
2018-11-29T00:22:44.437Z,74.60
2018-11-29T00:26:50.884Z,74.40
2018-11-29T00:30:58.885Z,74.60
2018-11-29T00:35:05.953Z,74.20
2018-11-29T00:39:12.914Z,73.10
2018-11-29T00:43:19.361Z,72.90
2018-11-29T00:47:26.751Z,73.50
2018-11-29T00:51:33.223Z,72.00
2018-11-29T00:55:40.938Z,71.00
2018-11-29T00:59:47.481Z,71.10
2018-11-29T01:03:55.287Z,70.60
2018-11-29T01:08:01.747Z,70.90
2018-11-29T01:12:08.840Z,71.10
2018-11-29T01:16:17.984Z,70.00
2018-11-29T01:20:24.980Z,70.20
2018-11-29T01:24:31.466Z,70.40
2018-11-29T01:28:38.251Z,69.80
2018-11-29T01:32:45.070Z,69.50
2018-11-29T01:36:52.746Z,70.20
2018-11-29T01:41:01.935Z,69.70
2018-11-29T01:45:09.437Z,69.70
2018-11-29T01:49:15.987Z,68.90
2018-11-29T01:53:23.228Z,67.10
2018-11-29T01:57:29.749Z,67.20
2018-11-29T02:01:36.472Z,66.20
2018-11-29T02:05:43.826Z,66.70
2018-11-29T02:09:52.015Z,66.00
2018-11-29T02:13:58.597Z,65.80
2018-11-29T02:18:06.265Z,65.70
2018-11-29T02:22:12.752Z,65.30
2018-11-29T02:26:20.286Z,64.70
2018-11-29T02:30:26.763Z,66.00
2018-11-29T02:34:33.436Z,66.00
2018-11-29T02:38:40.884Z,64.30
2018-11-29T02:42:48.960Z,64.80
2018-11-29T02:46:55.422Z,64.70
2018-11-29T02:51:03.337Z,65.00
2018-11-29T02:55:10.633Z,65.30
2018-11-29T02:59:18.192Z,66.00
2018-11-29T03:03:24.745Z,65.10
2018-11-29T03:07:31.304Z,64.80
2018-11-29T03:11:38.146Z,65.30
2018-11-29T03:15:45.809Z,65.20
2018-11-29T03:19:52.388Z,65.70
2018-11-29T03:23:59.003Z,65.40
2018-11-29T03:28:05.476Z,64.10
2018-11-29T03:32:14.188Z,64.60
2018-11-29T03:36:20.730Z,65.80
2018-11-29T03:40:27.463Z,65.40
2018-11-29T03:44:33.894Z,64.70
2018-11-29T03:48:41.818Z,64.80
2018-11-29T03:52:51.285Z,64.70
2018-11-29T03:56:59.634Z,64.70
2018-11-29T04:01:06.296Z,64.70
2018-11-29T04:05:13.215Z,64.20
2018-11-29T04:09:19.765Z,64.70
2018-11-29T04:13:27.363Z,64.60
2018-11-29T04:17:40.367Z,64.10
2018-11-29T04:21:41.790Z,64.40
2018-11-29T04:25:48.234Z,65.20
2018-11-29T04:29:55.010Z,64.70
2018-11-29T04:34:01.503Z,64.50
2018-11-29T04:38:09.139Z,64.40
2018-11-29T04:42:15.589Z,64.60
2018-11-29T04:46:42.196Z,64.70
2018-11-29T04:50:49.849Z,64.30
2018-11-29T04:54:56.864Z,64.40
2018-11-29T04:59:03.452Z,63.80
2018-11-29T05:03:10.231Z,63.90
2018-11-29T05:07:16.669Z,64.20
2018-11-29T05:11:26.572Z,64.70
2018-11-29T05:15:33.057Z,64.10
2018-11-29T05:19:39.699Z,65.10
2018-11-29T05:23:46.225Z,65.00
2018-11-29T05:27:56.016Z,65.80
2018-11-29T05:32:01.008Z,66.00
2018-11-29T05:36:10.604Z,65.50
2018-11-29T05:40:17.111Z,65.60
2018-11-29T05:44:24.326Z,65.80
2018-11-29T05:48:30.791Z,66.20
2018-11-29T05:52:37.627Z,66.40
2018-11-29T05:56:44.147Z,66.50
2018-11-29T06:00:52.613Z,66.30
2018-11-29T06:05:02.118Z,66.40
2018-11-29T06:09:11.055Z,67.20
2018-11-29T06:13:17.585Z,67.00
2018-11-29T06:17:24.656Z,67.30
2018-11-29T06:21:31.156Z,67.20
2018-11-29T06:25:38.582Z,67.00
2018-11-29T06:29:45.049Z,67.10
2018-11-29T06:33:53.831Z,67.40
2018-11-29T06:38:00.401Z,68.10
2018-11-29T06:42:07.592Z,69.00
2018-11-29T06:46:14.059Z,68.50
2018-11-29T06:50:21.749Z,69.30
2018-11-29T06:54:28.289Z,69.20
2018-11-29T06:58:35.080Z,69.50
2018-11-29T07:02:41.532Z,69.60
2018-11-29T07:06:49.092Z,68.80
2018-11-29T07:10:56.813Z,68.50
2018-11-29T07:15:06.152Z,69.10
2018-11-29T07:19:15.029Z,68.90
2018-11-29T07:23:20.794Z,68.60
2018-11-29T07:27:27.302Z,68.60
2018-11-29T07:31:34.041Z,67.90
2018-11-29T07:35:40.633Z,68.50
2018-11-29T07:39:48.204Z,68.10
2018-11-29T07:43:55.693Z,67.60
2018-11-29T07:48:05.262Z,68.10
2018-11-29T07:52:12.705Z,68.00
2018-11-29T07:56:19.689Z,68.00
2018-11-29T08:00:27.167Z,67.70
2018-11-29T08:04:33.929Z,66.70
2018-11-29T08:08:51.401Z,66.60
2018-11-29T08:12:58.741Z,66.90
2018-11-29T08:17:06.968Z,66.60
2018-11-29T08:21:14.614Z,66.40
2018-11-29T08:25:21.193Z,66.10
2018-11-29T08:29:29.502Z,65.60
2018-11-29T08:33:35.810Z,64.50
2018-11-29T08:37:43.533Z,63.80
2018-11-29T08:41:50.044Z,64.00
2018-11-29T08:45:57.628Z,63.70
2018-11-29T08:50:04.172Z,63.40
2018-11-29T08:54:12.139Z,65.60
2018-11-29T08:58:18.717Z,66.60
2018-11-29T09:02:25.538Z,62.40
2018-11-29T09:06:32.020Z,61.70
2018-11-29T09:10:38.843Z,63.00
2018-11-29T09:14:46.511Z,63.30
2018-11-29T09:18:53.419Z,61.50
2018-11-29T09:23:00.751Z,59.90
2018-11-29T09:27:08.411Z,60.30
2018-11-29T09:31:18.325Z,59.40
2018-11-29T09:35:26.521Z,60.50
2018-11-29T09:39:33.132Z,58.10
2018-11-29T09:43:39.877Z,59.60
2018-11-29T09:47:47.803Z,59.20
2018-11-29T09:51:56.961Z,59.30
2018-11-29T09:56:03.546Z,58.30
2018-11-29T10:00:28.243Z,61.10
2018-11-29T10:04:32.097Z,62.20
2018-11-29T10:08:40.349Z,56.80
2018-11-29T10:12:46.884Z,56.50
2018-11-29T10:16:53.708Z,55.80
2018-11-29T10:21:01.164Z,55.80
2018-11-29T10:25:10.611Z,56.40
2018-11-29T10:29:17.863Z,55.70
2018-11-29T10:33:24.860Z,56.20
2018-11-29T10:37:32.175Z,56.60
2018-11-29T10:41:40.025Z,56.40
2018-11-29T10:45:47.490Z,55.50
2018-11-29T10:49:58.493Z,55.70
2018-11-29T10:54:07.909Z,56.20
2018-11-29T10:58:13.816Z,56.00
2018-11-29T11:02:30.689Z,55.60
2018-11-29T11:06:39.880Z,54.30
2018-11-29T11:10:46.377Z,54.00
2018-11-29T11:14:55.289Z,54.10
2018-11-29T11:19:02.829Z,53.50
2018-11-29T11:23:09.888Z,54.40
2018-11-29T11:27:17.246Z,54.00
2018-11-29T11:31:31.097Z,54.60
2018-11-29T11:35:38.788Z,53.10
2018-11-29T11:39:49.107Z,52.70
2018-11-29T11:43:55.920Z,52.00
2018-11-29T11:48:03.481Z,50.90
2018-11-29T11:52:11.324Z,52.10
2018-11-29T11:56:18.075Z,51.70
2018-11-29T12:00:29.320Z,52.50
2018-11-29T12:04:36.946Z,52.60
2018-11-29T12:08:46.796Z,52.20
2018-11-29T12:12:51.576Z,52.20
2018-11-29T12:16:58.827Z,52.20
2018-11-29T12:21:06.354Z,52.40
2018-11-29T12:25:17.653Z,53.30
2018-11-29T12:29:25.701Z,53.40
2018-11-29T12:33:33.983Z,52.20
2018-11-29T12:37:39.881Z,52.40
2018-11-29T12:41:46.377Z,53.40
2018-11-29T12:45:54.011Z,51.80
2018-11-29T12:50:00.647Z,52.30
2018-11-29T12:54:10.327Z,52.70
2018-11-29T12:58:17.005Z,52.70
2018-11-29T13:02:24.647Z,52.10
2018-11-29T13:06:32.024Z,52.40
2018-11-29T13:10:39.351Z,53.40
2018-11-29T13:14:48.195Z,52.80
2018-11-29T13:18:54.959Z,52.90
2018-11-29T13:23:02.288Z,53.60
2018-11-29T13:27:12.504Z,53.90
2018-11-29T13:31:20.437Z,54.60
2018-11-29T13:35:36.877Z,54.80
2018-11-29T13:39:43.740Z,54.20
2018-11-29T13:43:51.289Z,54.90
2018-11-29T13:47:57.983Z,56.00
2018-11-29T13:52:04.879Z,55.70
2018-11-29T13:56:11.512Z,56.10
2018-11-29T14:00:28.131Z,56.80
2018-11-29T14:04:35.463Z,57.40
2018-11-29T14:08:42.481Z,57.80
2018-11-29T14:12:53.054Z,58.30
2018-11-29T14:17:02.982Z,58.70
2018-11-29T14:21:09.484Z,58.50
2018-11-29T14:25:17.032Z,58.70
2018-11-29T14:29:24.937Z,59.20
2018-11-29T14:33:31.847Z,59.40
2018-11-29T14:37:42.524Z,59.30
2018-11-29T14:41:50.981Z,59.70
2018-11-29T14:45:58.359Z,60.20
2018-11-29T14:50:06.469Z,60.60
2018-11-29T14:54:13.005Z,60.80
2018-11-29T14:58:20.061Z,60.60
2018-11-29T15:02:26.627Z,60.80
2018-11-29T15:06:37.025Z,61.10
2018-11-29T15:10:45.201Z,61.40
2018-11-29T15:14:51.978Z,61.70
2018-11-29T15:18:58.477Z,61.50
2018-11-29T15:23:07.550Z,61.40
2018-11-29T15:27:18.287Z,62.60
2018-11-29T15:31:24.980Z,63.40
2018-11-29T15:35:33.594Z,62.40
2018-11-29T15:39:42.545Z,62.90
2018-11-29T15:44:41.789Z,62.20
2018-11-29T15:49:07.954Z,62.50
2018-11-29T15:53:14.853Z,63.10
2018-11-29T15:57:22.517Z,63.30
2018-11-29T16:01:29.318Z,62.50
2018-11-29T16:05:36.481Z,63.30
2018-11-29T16:09:44.765Z,63.20
2018-11-29T16:13:54.921Z,63.50
2018-11-29T16:18:03.769Z,62.60
2018-11-29T16:22:09.736Z,62.90
2018-11-29T16:26:16.552Z,62.70
2018-11-29T16:30:45.774Z,63.10
2018-11-29T16:34:52.641Z,63.00
2018-11-29T16:38:59.589Z,62.90
2018-11-29T16:43:08.122Z,63.00
2018-11-29T16:47:16.498Z,62.80
2018-11-29T16:51:23.252Z,62.30
2018-11-29T16:55:30.342Z,62.80
2018-11-29T16:59:37.132Z,62.40
2018-11-29T17:03:47.024Z,63.00
2018-11-29T17:07:54.663Z,63.10
2018-11-29T17:12:04.452Z,63.40
2018-11-29T17:16:11.250Z,63.50
2018-11-29T17:20:19.121Z,63.00
2018-11-29T17:24:25.993Z,62.90
2018-11-29T17:28:32.993Z,63.10
2018-11-29T17:32:39.784Z,63.30
2018-11-29T17:36:47.605Z,62.60
2018-11-29T17:40:57.307Z,63.50
2018-11-29T17:45:04.524Z,63.10
2018-11-29T17:49:13.651Z,63.00
2018-11-29T17:53:22.564Z,63.40
2018-11-29T17:57:29.353Z,62.90
2018-11-29T18:01:36.474Z,63.40
2018-11-29T18:05:44.148Z,63.60
2018-11-29T18:09:54.090Z,63.50
2018-11-29T18:14:00.871Z,63.30
2018-11-29T18:18:07.896Z,63.40
2018-11-29T18:22:14.741Z,64.40
2018-11-29T18:26:24.697Z,64.40
2018-11-29T18:30:30.742Z,64.40
2018-11-29T18:34:38.532Z,64.70
2018-11-29T18:38:45.311Z,64.50
2018-11-29T18:43:02.395Z,65.00
2018-11-29T18:47:09.986Z,64.70
2018-11-29T18:51:18.381Z,64.90
2018-11-29T18:55:26.190Z,65.40
2018-11-29T18:59:34.604Z,65.90
2018-11-29T19:03:41.487Z,65.20
2018-11-29T19:07:48.583Z,64.60
2018-11-29T19:11:58.284Z,65.20
2018-11-29T19:16:06.095Z,65.00
2018-11-29T19:20:16.098Z,64.80
2018-11-29T19:24:23.147Z,64.70
2018-11-29T19:28:31.628Z,67.10
2018-11-29T19:32:39.623Z,64.10
2018-11-29T19:36:47.572Z,64.30
2018-11-29T19:40:55.997Z,64.00
2018-11-29T19:45:02.915Z,64.50
2018-11-29T19:49:10.192Z,64.80
2018-11-29T19:53:26.913Z,65.00
2018-11-29T19:57:35.078Z,65.20
2018-11-29T20:01:41.950Z,64.70
2018-11-29T20:05:50.497Z,64.10
2018-11-29T20:10:00.096Z,64.20
2018-11-29T20:14:07.899Z,64.40
2018-11-29T20:18:15.308Z,64.60
2018-11-29T20:22:23.895Z,64.30
2018-11-29T20:26:30.687Z,64.60
2018-11-29T20:30:38.204Z,63.90
2018-11-29T20:34:50.445Z,64.20
2018-11-29T20:38:58.896Z,64.70
2018-11-29T20:43:05.695Z,63.70
2018-11-29T20:47:13.635Z,63.40
2018-11-29T20:51:20.781Z,63.60
2018-11-29T20:55:32.038Z,64.40
2018-11-29T20:59:38.829Z,63.10
2018-11-29T21:03:47.034Z,63.00
2018-11-29T21:07:55.319Z,63.30
2018-11-29T21:12:03.341Z,63.20
2018-11-29T21:16:10.173Z,64.00
2018-11-29T21:20:22.862Z,63.40
2018-11-29T21:24:32.106Z,63.50
2018-11-29T21:28:41.377Z,63.90
2018-11-29T21:32:48.530Z,64.40
2018-11-29T21:36:59.446Z,64.00
2018-11-29T21:41:07.432Z,63.90
2018-11-29T21:45:15.944Z,63.50
2018-11-29T21:49:22.749Z,63.70
2018-11-29T21:53:29.842Z,63.70
2018-11-29T21:57:36.698Z,64.20
2018-11-29T22:01:44.486Z,64.30
2018-11-29T22:05:51.292Z,64.20
2018-11-29T22:09:59.713Z,63.70
2018-11-29T22:14:09.523Z,62.70
2018-11-29T22:18:21.973Z,62.40
2018-11-29T22:26:36.669Z,62.50
2018-11-29T22:30:44.177Z,62.70
2018-11-29T22:34:51.537Z,62.20
2018-11-29T22:38:58.676Z,62.60
2018-11-29T22:43:05.644Z,62.00
2018-11-29T22:47:13.502Z,61.80
2018-11-29T22:51:21.778Z,62.00
2018-11-29T22:55:28.580Z,62.10
2018-11-29T22:59:35.473Z,62.10
2018-11-29T23:03:42.841Z,62.10
2018-11-29T23:07:51.134Z,61.50
2018-11-29T23:11:57.902Z,61.70
2018-11-29T23:16:05.540Z,61.70
2018-11-29T23:20:15.178Z,61.60
2018-11-29T23:24:23.315Z,61.40
2018-11-29T23:28:30.042Z,61.30
2018-11-29T23:32:37.255Z,61.90
2018-11-29T23:36:44.093Z,62.00
2018-11-29T23:40:52.630Z,62.10
2018-11-29T23:44:59.812Z,61.70
2018-11-29T23:49:07.095Z,61.80
2018-11-29T23:53:15.423Z,61.80
2018-11-29T23:57:23.859Z,62.40
